Time;durP1;ratioP1;P1;durP2;ratioP2;P2;SDS_P1;SDS_P2;PMS_P1;PMS_P2;Temp;Humidity;BMP_temperature;BMP_pressure;BME280_temperature;BME280_humidity;BME280_pressure;Samples;Min_cycle;Max_cycle;Signal;HPM_P1;HPM_P2
2021/12/16 00:08:58;;;;;;;6.68;3.40;;;10.70;96.00;;;;;;5124374;27;20536;-60
2021/12/16 00:35:50;;;;;;;6.25;3.33;;;10.70;97.50;;;;;;5106148;28;20047;-61
2021/12/16 00:38:18;;;;;;;6.10;4.03;;;10.70;97.60;;;;;;5092904;28;20039;-61
2021/12/16 00:40:46;;;;;;;7.93;3.72;;;10.60;97.60;;;;;;5079238;28;20388;-60
2021/12/16 00:54:14;;;;;;;7.25;3.78;;;10.70;97.80;;;;;;5111881;28;20354;-61
2021/12/16 00:56:49;;;;;;;6.57;3.15;;;10.60;97.80;;;;;;5078811;27;20533;-60
2021/12/16 00:59:19;;;;;;;6.60;3.85;;;10.60;97.80;;;;;;5109183;28;20430;-61
2021/12/16 01:02:01;;;;;;;10.63;3.70;;;10.70;97.80;;;;;;5101110;27;20039;-60
2021/12/16 01:07:57;;;;;;;11.13;4.68;;;10.60;97.90;;;;;;5101518;28;20032;-60
2021/12/16 01:36:43;;;;;;;9.55;5.18;;;10.40;98.30;;;;;;5088765;28;20039;-61
2021/12/16 01:55:18;;;;;;;4.47;3.40;;;10.20;98.10;;;;;;5096919;28;20031;-60
2021/12/16 01:57:59;;;;;;;6.25;3.38;;;10.20;98.20;;;;;;5080251;28;20379;-60
2021/12/16 02:00:58;;;;;;;7.10;3.78;;;10.10;98.20;;;;;;5079498;28;20100;-60
2021/12/16 02:03:44;;;;;;;5.28;3.65;;;10.20;98.30;;;;;;5072495;28;20048;-60
2021/12/16 02:06:41;;;;;;;6.50;4.07;;;10.10;98.20;;;;;;5114848;28;20047;-61
2021/12/16 02:09:50;;;;;;;6.78;3.60;;;10.20;98.50;;;;;;5114671;28;20096;-61
2021/12/16 02:29:13;;;;;;;8.73;4.07;;;10.10;98.40;;;;;;5079671;28;20036;-60
2021/12/16 02:31:54;;;;;;;6.93;3.15;;;10.10;98.50;;;;;;5096016;28;20265;-60
2021/12/16 02:34:56;;;;;;;6.30;3.53;;;10.10;98.60;;;;;;5114331;28;20050;-60
2021/12/16 02:37:17;;;;;;;5.45;3.40;;;10.10;98.60;;;;;;5095145;28;20044;-60
2021/12/16 02:39:48;;;;;;;4.90;3.65;;;10.10;98.70;;;;;;5096192;28;20038;-60
2021/12/16 02:42:23;;;;;;;7.32;3.75;;;10.10;98.80;;;;;;5114130;28;20039;-61
2021/12/16 02:50:43;;;;;;;5.75;3.35;;;10.10;98.80;;;;;;4999127;28;20099;-60
2021/12/16 02:53:11;;;;;;;6.82;3.70;;;10.10;98.80;;;;;;5014886;28;20076;-61
2021/12/16 02:55:39;;;;;;;6.45;3.33;;;10.10;98.70;;;;;;5055183;28;20047;-60
2021/12/16 02:58:07;;;;;;;5.53;3.17;;;10.10;98.80;;;;;;5079162;28;20142;-60
2021/12/16 03:00:46;;;;;;;7.93;3.78;;;10.10;98.70;;;;;;5095750;28;20043;-60
2021/12/16 03:03:15;;;;;;;5.40;2.90;;;10.10;98.60;;;;;;5095921;28;20354;-60
2021/12/16 03:05:43;;;;;;;5.32;3.00;;;10.10;98.60;;;;;;5078589;28;20479;-60
2021/12/16 03:08:12;;;;;;;6.10;3.78;;;10.10;98.60;;;;;;5096061;28;20036;-61
2021/12/16 03:13:34;;;;;;;6.93;3.53;;;10.10;98.60;;;;;;5078877;28;20043;-61
2021/12/16 03:16:22;;;;;;;5.22;2.97;;;10.10;98.60;;;;;;5085457;28;20043;-60
2021/12/16 03:21:46;;;;;;;6.00;3.63;;;10.10;98.60;;;;;;5103747;28;20531;-60
2021/12/16 03:35:53;;;;;;;8.52;3.55;;;10.00;98.70;;;;;;5095544;28;20122;-60
2021/12/16 03:38:10;;;;;;;5.93;3.70;;;10.00;98.70;;;;;;5112532;28;20040;-61
2021/12/16 03:40:40;;;;;;;4.88;2.97;;;9.90;98.50;;;;;;5095827;28;20036;-60
2021/12/16 03:43:14;;;;;;;5.75;3.78;;;10.00;98.50;;;;;;5082317;28;20378;-60
2021/12/16 03:48:45;;;;;;;4.28;2.92;;;9.90;98.50;;;;;;5099262;28;20032;-60
2021/12/16 03:51:19;;;;;;;5.38;4.13;;;9.90;98.50;;;;;;5065993;28;20452;-60
2021/12/16 03:53:51;;;;;;;5.47;4.00;;;9.90;98.40;;;;;;5082132;28;20058;-60
2021/12/16 03:56:23;;;;;;;5.75;3.78;;;9.90;98.50;;;;;;5099452;28;20126;-60
2021/12/16 03:59:05;;;;;;;5.78;4.18;;;9.90;98.40;;;;;;5067693;28;20044;-60
2021/12/16 04:01:43;;;;;;;5.53;3.85;;;9.80;98.40;;;;;;5099053;28;20035;-61
2021/12/16 04:04:14;;;;;;;9.57;4.68;;;9.90;98.40;;;;;;5082804;28;20058;-60
2021/12/16 04:06:43;;;;;;;5.70;3.53;;;9.80;98.40;;;;;;5081867;28;20039;-60
2021/12/16 04:09:15;;;;;;;5.50;3.50;;;9.80;98.50;;;;;;5099113;28;20035;-61
2021/12/16 04:12:09;;;;;;;6.00;3.78;;;9.80;98.60;;;;;;5098809;28;20544;-60
2021/12/16 04:14:39;;;;;;;7.00;4.38;;;9.80;98.60;;;;;;5065918;28;20082;-60
2021/12/16 04:17:09;;;;;;;5.88;3.65;;;9.70;98.60;;;;;;5099009;28;20105;-60
2021/12/16 04:19:53;;;;;;;6.03;4.18;;;9.70;98.60;;;;;;5098875;28;20034;-60
2021/12/16 04:22:30;;;;;;;5.93;3.90;;;9.70;98.60;;;;;;5082057;28;20043;-60
2021/12/16 04:25:03;;;;;;;7.13;4.25;;;9.70;98.70;;;;;;5098692;28;20448;-60
2021/12/16 04:27:37;;;;;;;6.00;3.47;;;9.70;98.70;;;;;;5082235;28;20043;-60
2021/12/16 04:30:08;;;;;;;6.72;4.07;;;9.60;98.70;;;;;;5098595;28;20477;-60
2021/12/16 04:32:38;;;;;;;5.90;3.65;;;9.60;98.70;;;;;;5081723;28;20384;-60
2021/12/16 04:35:07;;;;;;;5.18;3.85;;;9.60;98.80;;;;;;5081719;28;20050;-60
2021/12/16 04:37:36;;;;;;;5.97;4.25;;;9.60;98.80;;;;;;5098392;28;20466;-60
2021/12/16 04:40:08;;;;;;;6.20;3.83;;;9.50;98.80;;;;;;5082016;28;20110;-60
2021/12/16 04:42:41;;;;;;;7.38;3.75;;;9.50;98.90;;;;;;5082106;28;20042;-60
2021/12/16 04:45:13;;;;;;;5.93;3.50;;;9.50;99.00;;;;;;5098230;28;20027;-60
2021/12/16 04:47:42;;;;;;;5.47;4.28;;;9.40;99.00;;;;;;5098110;28;20462;-60
2021/12/16 04:50:13;;;;;;;7.47;4.38;;;9.40;99.10;;;;;;5081194;28;20043;-61
2021/12/16 04:52:41;;;;;;;5.05;3.28;;;9.40;99.10;;;;;;5081101;28;20042;-60
2021/12/16 04:55:13;;;;;;;6.55;3.80;;;9.40;99.10;;;;;;5098285;28;20423;-60
2021/12/16 04:57:41;;;;;;;8.93;4.35;;;9.40;99.20;;;;;;5097720;28;20042;-60
2021/12/16 05:00:13;;;;;;;6.78;3.70;;;9.40;99.10;;;;;;5080791;28;20047;-60
2021/12/16 05:02:46;;;;;;;;;;;9.40;99.10;;;;;;5098540;28;20484;-60
2021/12/16 05:05:32;;;;;;;5.40;3.17;;;9.40;99.00;;;;;;5115901;28;19922;-60
2021/12/16 05:08:01;;;;;;;6.68;3.83;;;9.50;99.00;;;;;;5080370;28;20050;-60
2021/12/16 05:10:38;;;;;;;6.28;4.03;;;9.50;99.10;;;;;;5097786;28;20126;-60
2021/12/16 05:13:12;;;;;;;6.88;4.20;;;9.40;99.00;;;;;;5097617;28;20046;-60
2021/12/16 05:15:42;;;;;;;6.57;4.32;;;9.50;99.10;;;;;;5080872;28;20047;-60
2021/12/16 05:18:18;;;;;;;7.10;3.85;;;9.40;98.90;;;;;;5080601;28;20039;-60
2021/12/16 05:20:52;;;;;;;6.35;4.00;;;9.50;98.90;;;;;;5097739;28;20085;-60
2021/12/16 05:28:45;;;;;;;;;;;9.50;99.30;;;;;;5098055;28;20483;-60
2021/12/16 05:31:14;;;;;;;6.15;3.97;;;9.50;99.20;;;;;;5080203;28;20061;-60
2021/12/16 05:33:46;;;;;;;7.97;4.63;;;9.50;98.90;;;;;;5080965;28;20367;-60
2021/12/16 05:36:16;;;;;;;8.55;4.55;;;9.50;99.00;;;;;;5064336;28;20052;-61
2021/12/16 05:38:45;;;;;;;7.45;3.80;;;9.40;99.00;;;;;;5097198;28;20040;-60
2021/12/16 05:41:17;;;;;;;6.68;4.55;;;9.40;99.00;;;;;;5064268;28;20040;-60
2021/12/16 05:43:48;;;;;;;7.82;4.40;;;9.40;99.10;;;;;;5097086;28;20122;-60
2021/12/16 05:46:20;;;;;;;6.57;3.80;;;9.30;99.10;;;;;;5080266;28;20377;-60
2021/12/16 05:48:50;;;;;;;8.23;4.10;;;9.30;99.10;;;;;;5096817;28;20061;-60
2021/12/16 05:51:28;;;;;;;7.00;4.22;;;9.30;99.00;;;;;;5080489;28;20042;-60
2021/12/16 05:53:58;;;;;;;8.10;4.35;;;9.30;99.00;;;;;;5063863;28;20139;-60
2021/12/16 05:56:38;;;;;;;7.78;4.38;;;9.30;99.10;;;;;;5097000;28;20481;-60
2021/12/16 05:59:08;;;;;;;8.73;4.72;;;9.30;99.00;;;;;;5096509;28;20048;-60
2021/12/16 06:01:38;;;;;;;10.40;5.68;;;9.30;99.00;;;;;;5096609;28;20042;-60
2021/12/16 06:04:06;;;;;;;9.45;4.97;;;9.30;99.00;;;;;;5079474;28;20138;-60
2021/12/16 06:06:36;;;;;;;15.60;6.72;;;9.30;98.90;;;;;;5079376;28;20047;-60
2021/12/16 06:09:06;;;;;;;11.43;5.70;;;9.30;98.90;;;;;;5080043;28;20032;-60
2021/12/16 06:11:36;;;;;;;7.05;5.78;;;9.30;98.80;;;;;;5063333;28;20047;-61
2021/12/16 06:14:19;;;;;;;11.10;4.63;;;9.30;98.70;;;;;;5114620;28;20118;-60
2021/12/16 06:22:51;;;;;;;7.50;5.28;;;9.30;98.60;;;;;;5114262;28;20054;-61
2021/12/16 06:28:09;;;;;;;13.02;4.55;;;9.90;98.20;;;;;;5114400;28;20042;-61
2021/12/16 06:30:40;;;;;;;7.80;5.13;;;10.60;97.10;;;;;;5096370;28;20071;-61
2021/12/16 06:33:12;;;;;;;6.30;3.80;;;11.40;96.00;;;;;;5096432;28;20127;-60
2021/12/16 06:35:40;;;;;;;7.63;3.83;;;12.10;95.10;;;;;;5096462;28;20058;-60
2021/12/16 06:38:10;;;;;;;9.85;4.55;;;12.80;94.10;;;;;;5079714;28;20508;-61
2021/12/16 06:41:01;;;;;;;6.95;4.03;;;13.20;93.20;;;;;;5091915;28;20251;-61
2021/12/16 06:43:53;;;;;;;7.70;4.43;;;13.60;92.80;;;;;;5085630;28;20062;-60
2021/12/16 06:46:30;;;;;;;7.35;3.85;;;14.10;92.30;;;;;;5114558;28;20035;-60
2021/12/16 06:48:59;;;;;;;7.70;4.25;;;14.60;91.60;;;;;;5114147;28;20036;-60
2021/12/16 06:51:39;;;;;;;5.53;4.22;;;14.80;91.00;;;;;;5095974;28;20172;-60
2021/12/16 06:54:12;;;;;;;7.70;4.35;;;15.00;90.90;;;;;;5096335;28;20032;-60
2021/12/16 06:57:37;;;;;;;7.60;4.88;;;15.10;90.70;;;;;;5096408;28;20130;-60
2021/12/16 06:59:33;;;;;;;6.82;3.72;;;15.40;90.40;;;;;;5103275;28;20101;-60
2021/12/16 07:04:36;;;;;;;7.35;4.00;;;16.30;88.10;;;;;;5096066;28;20035;-60
2021/12/16 07:07:06;;;;;;;7.03;4.25;;;15.90;88.50;;;;;;5078946;28;20040;-60
2021/12/16 07:09:35;;;;;;;6.82;3.80;;;15.40;90.00;;;;;;5096470;28;20040;-60
2021/12/16 07:12:06;;;;;;;8.20;4.40;;;15.50;90.20;;;;;;5079055;28;20039;-62
2021/12/16 07:14:37;;;;;;;8.13;4.45;;;16.20;88.80;;;;;;5078931;28;20043;-61
2021/12/16 07:17:09;;;;;;;8.43;5.57;;;16.20;87.90;;;;;;5098464;28;20047;-61
2021/12/16 07:19:38;;;;;;;5.80;3.80;;;15.80;89.10;;;;;;5118040;28;20114;-61
2021/12/16 07:22:07;;;;;;;9.27;4.45;;;15.80;89.10;;;;;;5117762;28;20043;-60
2021/12/16 07:24:35;;;;;;;7.25;4.15;;;15.70;89.20;;;;;;5066154;28;20048;-60
2021/12/16 07:27:04;;;;;;;8.05;4.20;;;15.70;89.30;;;;;;5082398;28;20047;-61
2021/12/16 07:29:31;;;;;;;12.85;8.38;;;15.90;89.50;;;;;;5117638;28;20421;-61
2021/12/16 07:31:59;;;;;;;15.13;9.43;;;16.60;88.20;;;;;;5082729;28;20377;-60
2021/12/16 07:34:27;;;;;;;20.25;12.77;;;17.30;86.10;;;;;;5117555;28;20028;-61
2021/12/16 07:36:55;;;;;;;14.80;12.00;;;17.30;85.70;;;;;;5082597;28;20047;-61
2021/12/16 07:39:28;;;;;;;14.10;9.77;;;16.70;86.40;;;;;;5099187;28;20055;-61
2021/12/16 07:41:58;;;;;;;11.13;9.57;;;15.80;88.30;;;;;;5099620;28;20043;-60
2021/12/16 07:44:28;;;;;;;13.80;9.90;;;15.10;90.00;;;;;;5117542;28;20031;-61
2021/12/16 07:47:00;;;;;;;11.30;8.73;;;14.40;90.80;;;;;;5099383;28;20084;-60
2021/12/16 07:49:31;;;;;;;17.25;9.52;;;13.80;91.50;;;;;;5082274;28;20047;-60
2021/12/16 07:52:03;;;;;;;10.98;7.45;;;13.60;92.40;;;;;;5081925;28;20485;-60
2021/12/16 07:54:31;;;;;;;9.40;6.25;;;13.80;92.30;;;;;;5082620;28;20085;-60
2021/12/16 07:57:00;;;;;;;11.75;7.72;;;14.20;91.80;;;;;;5099190;28;20407;-60
2021/12/16 07:59:30;;;;;;;12.15;8.30;;;14.60;91.30;;;;;;5117287;28;20496;-60
2021/12/16 08:01:59;;;;;;;11.98;6.93;;;14.70;91.00;;;;;;5082503;28;20043;-60
2021/12/16 08:04:30;;;;;;;13.25;7.88;;;14.80;90.80;;;;;;5082308;28;20043;-60
2021/12/16 08:07:04;;;;;;;17.27;9.48;;;15.00;90.70;;;;;;5098829;28;20031;-61
2021/12/16 08:14:16;;;;;;;9.35;4.47;;;15.40;90.20;;;;;;5117520;28;20061;-61
2021/12/16 08:16:44;;;;;;;7.07;3.30;;;15.40;89.10;;;;;;5082236;28;20039;-61
2021/12/16 08:19:13;;;;;;;9.43;3.38;;;15.10;89.60;;;;;;5098898;28;20036;-61
2021/12/16 08:21:41;;;;;;;4.40;3.05;;;14.50;90.30;;;;;;5081706;28;20489;-60
2021/12/16 08:24:14;;;;;;;4.85;2.80;;;14.10;90.60;;;;;;5065410;28;20527;-62
2021/12/16 08:26:43;;;;;;;3.78;2.75;;;13.60;91.10;;;;;;5116894;28;20039;-60
2021/12/16 08:29:11;;;;;;;5.57;2.75;;;13.20;91.60;;;;;;5097769;28;20089;-61
2021/12/16 08:31:39;;;;;;;4.15;2.47;;;12.90;92.10;;;;;;5098570;28;20050;-60
2021/12/16 08:38:48;;;;;;;5.07;1.95;;;12.50;92.50;;;;;;5116755;28;20112;-60
2021/12/16 08:41:34;;;;;;;6.43;2.53;;;12.60;92.00;;;;;;5081640;28;20063;-60
2021/12/16 08:44:03;;;;;;;5.53;2.53;;;12.40;91.80;;;;;;5081797;28;20130;-60
2021/12/16 08:46:34;;;;;;;4.30;2.70;;;12.50;91.90;;;;;;5098177;28;20066;-60
2021/12/16 08:49:02;;;;;;;4.32;2.55;;;12.50;91.80;;;;;;5098160;28;20066;-61
2021/12/16 08:51:36;;;;;;;4.03;2.10;;;12.50;91.60;;;;;;5098167;28;20115;-61
2021/12/16 08:54:05;;;;;;;5.38;2.47;;;12.50;91.80;;;;;;5098362;28;20119;-60
2021/12/16 08:56:33;;;;;;;4.72;2.67;;;12.60;92.00;;;;;;5097168;28;20043;-61
2021/12/16 08:59:03;;;;;;;3.90;2.13;;;12.80;91.70;;;;;;5081009;28;20440;-61
2021/12/16 09:01:41;;;;;;;3.92;1.95;;;13.00;91.60;;;;;;5097902;28;20028;-60
2021/12/16 09:04:09;;;;;;;3.92;2.05;;;13.20;91.50;;;;;;5064527;28;20047;-62
2021/12/16 09:06:37;;;;;;;4.28;2.08;;;13.50;91.30;;;;;;5080920;28;20024;-61
2021/12/16 09:09:07;;;;;;;4.90;2.22;;;13.50;91.00;;;;;;5115929;28;20092;-60
2021/12/16 09:11:41;;;;;;;5.50;2.35;;;13.60;91.10;;;;;;5080823;28;20035;-61
2021/12/16 09:14:09;;;;;;;4.93;1.73;;;13.60;90.90;;;;;;5097580;28;20436;-62
2021/12/16 09:16:37;;;;;;;3.00;1.73;;;13.50;91.00;;;;;;5097629;28;20027;-61
2021/12/16 09:19:07;;;;;;;4.13;1.92;;;13.60;91.20;;;;;;5064601;28;20482;-60
2021/12/16 09:21:37;;;;;;;3.63;2.03;;;13.50;91.30;;;;;;5115647;28;20385;-61
2021/12/16 09:24:07;;;;;;;4.65;2.97;;;13.60;91.30;;;;;;5115603;28;20119;-60
2021/12/16 09:26:34;;;;;;;4.03;2.05;;;13.60;91.00;;;;;;5097515;28;20041;-61
2021/12/16 09:29:04;;;;;;;4.68;2.33;;;13.60;90.90;;;;;;5080658;28;20157;-61
2021/12/16 09:31:31;;;;;;;3.95;2.58;;;13.60;90.90;;;;;;5097522;28;20058;-61
2021/12/16 09:34:06;;;;;;;4.47;2.25;;;13.80;90.80;;;;;;5097231;28;20050;-61
2021/12/16 09:36:37;;;;;;;3.50;2.30;;;13.80;91.00;;;;;;5097480;28;20473;-61
2021/12/16 09:39:11;;;;;;;4.38;2.60;;;13.80;90.90;;;;;;5115282;28;20067;-61
2021/12/16 09:41:41;;;;;;;4.47;2.45;;;13.90;91.10;;;;;;5115494;28;20097;-61
2021/12/16 09:44:09;;;;;;;3.95;2.05;;;13.90;91.00;;;;;;5097368;28;20039;-61
2021/12/16 09:46:38;;;;;;;3.60;2.45;;;14.00;91.10;;;;;;5080108;28;20046;-61
2021/12/16 09:49:06;;;;;;;5.05;2.45;;;14.10;91.20;;;;;;5080340;28;20438;-61
2021/12/16 09:51:40;;;;;;;3.67;2.35;;;14.20;91.30;;;;;;5080346;28;20036;-61
2021/12/16 09:54:13;;;;;;;3.80;2.70;;;14.30;91.30;;;;;;5097075;28;20136;-61
2021/12/16 09:56:44;;;;;;;5.80;2.60;;;14.30;91.50;;;;;;5080285;28;20067;-60
2021/12/16 09:59:14;;;;;;;4.45;2.50;;;14.40;91.40;;;;;;5096902;28;20098;-61
2021/12/16 10:01:44;;;;;;;4.03;2.42;;;14.50;91.50;;;;;;5096873;28;20478;-60
2021/12/16 10:04:15;;;;;;;5.78;3.03;;;14.60;91.30;;;;;;5096532;28;20359;-61
2021/12/16 10:06:43;;;;;;;3.88;2.17;;;14.70;91.00;;;;;;5096837;28;20077;-61
2021/12/16 10:09:11;;;;;;;5.00;2.97;;;14.70;91.10;;;;;;5096938;28;20130;-61
2021/12/16 10:11:46;;;;;;;6.13;3.03;;;14.80;91.40;;;;;;5079603;28;20495;-60
2021/12/16 10:19:34;;;;;;;4.22;2.53;;;15.20;90.80;;;;;;5114821;28;20036;-61
2021/12/16 10:22:32;;;;;;;5.03;2.20;;;15.10;90.60;;;;;;5096706;28;20039;-60
2021/12/16 10:25:21;;;;;;;4.97;2.53;;;15.00;90.70;;;;;;5096546;28;20044;-61
2021/12/16 10:28:03;;;;;;;4.90;2.58;;;14.90;90.60;;;;;;5096264;28;20048;-61
2021/12/16 10:30:35;;;;;;;6.72;3.00;;;14.80;90.90;;;;;;5079531;28;20100;-61
2021/12/16 10:33:22;;;;;;;5.40;3.22;;;14.80;90.90;;;;;;5079732;28;20035;-61
2021/12/16 10:36:16;;;;;;;3.78;2.20;;;14.80;91.10;;;;;;5079667;28;20036;-61
2021/12/16 10:38:53;;;;;;;5.60;2.78;;;14.80;90.80;;;;;;5114329;28;20416;-61
2021/12/16 10:41:26;;;;;;;6.63;3.03;;;14.90;91.10;;;;;;5079648;28;20040;-61
2021/12/16 10:43:56;;;;;;;4.35;2.42;;;15.10;90.90;;;;;;5096038;28;20032;-60
2021/12/16 10:46:30;;;;;;;4.15;2.40;;;15.00;90.90;;;;;;5096238;28;20043;-61
2021/12/16 10:49:03;;;;;;;4.38;2.90;;;15.10;90.60;;;;;;5062849;28;20047;-60
2021/12/16 10:51:30;;;;;;;4.70;2.33;;;15.20;90.60;;;;;;5095533;28;20043;-61
2021/12/16 10:54:01;;;;;;;4.90;2.47;;;15.20;90.50;;;;;;5079421;28;20041;-61
2021/12/16 10:56:55;;;;;;;4.47;3.58;;;15.30;90.40;;;;;;5079443;28;20154;-61
2021/12/16 10:59:37;;;;;;;4.82;2.38;;;15.10;90.10;;;;;;5079319;28;20044;-61
2021/12/16 11:02:37;;;;;;;5.30;3.05;;;15.10;90.10;;;;;;5096036;28;20075;-61
2021/12/16 11:05:18;;;;;;;4.05;2.30;;;15.10;90.20;;;;;;5095952;28;20039;-61
2021/12/16 11:07:49;;;;;;;5.70;2.67;;;15.10;90.50;;;;;;5096110;28;20038;-61
2021/12/16 11:10:21;;;;;;;5.40;2.75;;;15.10;90.70;;;;;;5095991;28;20036;-61
2021/12/16 11:12:56;;;;;;;5.80;3.53;;;15.10;90.60;;;;;;5079389;28;20124;-61
2021/12/16 11:15:29;;;;;;;5.00;2.45;;;15.20;90.30;;;;;;5113957;28;20510;-61
2021/12/16 11:18:04;;;;;;;5.22;2.60;;;15.20;90.40;;;;;;5095619;28;20500;-61
2021/12/16 11:20:56;;;;;;;7.57;3.00;;;14.90;90.60;;;;;;5114038;28;20124;-61
2021/12/16 11:23:33;;;;;;;8.82;3.63;;;15.00;90.60;;;;;;5113864;28;20381;-61
2021/12/16 11:26:14;;;;;;;5.43;3.65;;;14.90;90.70;;;;;;5095870;28;20040;-61
2021/12/16 11:28:51;;;;;;;6.15;2.95;;;14.90;90.70;;;;;;5096527;28;20408;-61
2021/12/16 11:31:24;;;;;;;3.40;2.25;;;14.90;90.50;;;;;;5113845;28;20032;-61
2021/12/16 11:34:07;;;;;;;4.38;2.80;;;14.90;90.20;;;;;;5078932;28;20036;-61
2021/12/16 11:36:40;;;;;;;4.53;3.15;;;15.00;89.90;;;;;;5078813;28;20153;-61
2021/12/16 11:39:08;;;;;;;4.25;3.15;;;15.00;88.20;;;;;;5095908;28;20114;-61
2021/12/16 11:41:40;;;;;;;6.13;2.67;;;15.10;87.90;;;;;;5113937;28;20067;-61
2021/12/16 11:44:18;;;;;;;5.60;3.50;;;15.10;88.40;;;;;;5095695;28;20047;-61
2021/12/16 11:46:49;;;;;;;4.90;3.35;;;15.10;88.90;;;;;;5113518;28;20036;-61
2021/12/16 11:49:26;;;;;;;8.18;3.53;;;15.10;89.40;;;;;;5078834;28;20116;-61
2021/12/16 11:52:00;;;;;;;4.47;2.88;;;14.90;89.20;;;;;;5078985;28;20358;-61
2021/12/16 11:54:53;;;;;;;5.78;3.00;;;14.80;88.70;;;;;;5078889;28;20408;-61
2021/12/16 11:57:25;;;;;;;4.68;3.05;;;14.60;89.00;;;;;;5095376;28;20385;-61
2021/12/16 12:00:26;;;;;;;4.63;3.08;;;14.50;89.20;;;;;;5095328;28;20048;-61
2021/12/16 12:03:10;;;;;;;6.35;2.95;;;14.40;89.60;;;;;;5065293;28;20065;-61
2021/12/16 12:05:44;;;;;;;4.43;2.80;;;14.40;90.10;;;;;;5117105;28;20044;-61
2021/12/16 12:08:27;;;;;;;5.18;2.90;;;14.30;90.00;;;;;;5065245;28;20040;-61
2021/12/16 12:10:59;;;;;;;5.40;3.40;;;14.40;90.30;;;;;;5117248;28;20036;-61
2021/12/16 12:13:34;;;;;;;6.72;4.07;;;14.40;90.40;;;;;;5117265;28;20040;-61
2021/12/16 12:16:05;;;;;;;6.30;3.63;;;14.50;90.70;;;;;;5116997;28;20073;-61
2021/12/16 12:18:49;;;;;;;7.13;3.55;;;14.40;90.80;;;;;;5116843;28;20046;-61
2021/12/16 12:21:19;;;;;;;6.97;4.57;;;14.40;90.90;;;;;;5092299;28;20035;-61
2021/12/16 12:23:49;;;;;;;9.15;5.55;;;14.40;90.80;;;;;;5073489;28;20511;-61
2021/12/16 12:26:18;;;;;;;5.57;3.28;;;14.20;90.30;;;;;;5082288;28;20127;-60
2021/12/16 12:28:51;;;;;;;5.45;2.60;;;14.00;90.40;;;;;;5092620;28;20040;-61
2021/12/16 12:31:23;;;;;;;5.47;3.10;;;13.90;90.70;;;;;;5088043;28;20042;-61
2021/12/16 12:33:51;;;;;;;9.77;4.45;;;13.90;91.10;;;;;;5094436;27;20039;-61
2021/12/16 12:36:22;;;;;;;5.75;2.88;;;13.90;91.70;;;;;;5100673;28;20390;-60
2021/12/16 12:38:50;;;;;;;6.47;3.70;;;13.90;91.90;;;;;;5094921;28;20413;-59
2021/12/16 12:41:19;;;;;;;5.25;3.10;;;13.90;92.10;;;;;;5088428;28;20043;-59
2021/12/16 12:43:47;;;;;;;5.60;3.20;;;13.80;92.30;;;;;;5115154;28;20104;-59
2021/12/16 12:46:18;;;;;;;5.20;3.13;;;13.80;91.40;;;;;;5120525;27;20032;-59
2021/12/16 12:48:47;;;;;;;5.88;3.83;;;13.80;90.80;;;;;;5111319;28;20043;-59
2021/12/16 12:51:16;;;;;;;5.03;3.53;;;13.80;90.80;;;;;;5109888;27;20049;-59
2021/12/16 12:53:52;;;;;;;6.22;3.28;;;13.80;91.00;;;;;;5106931;27;20479;-59
2021/12/16 12:56:29;;;;;;;6.43;3.70;;;13.80;90.80;;;;;;5082807;28;20040;-60
2021/12/16 12:59:05;;;;;;;4.28;2.83;;;13.90;90.60;;;;;;5112998;28;20042;-60
2021/12/16 13:01:39;;;;;;;7.43;4.45;;;13.80;90.40;;;;;;5089336;28;20066;-59
2021/12/16 13:04:14;;;;;;;10.18;5.40;;;13.90;90.40;;;;;;5109157;27;20366;-59
2021/12/16 13:06:56;;;;;;;10.07;6.47;;;13.80;90.30;;;;;;5107325;27;20477;-59
2021/12/16 13:09:32;;;;;;;8.25;4.78;;;13.80;90.00;;;;;;5105541;28;20040;-59
2021/12/16 13:12:03;;;;;;;10.65;4.35;;;13.70;89.60;;;;;;5105990;28;20036;-59
2021/12/16 13:14:47;;;;;;;8.73;3.15;;;13.70;89.10;;;;;;5080229;28;20043;-59
2021/12/16 13:31:06;;;;;;;4.15;3.22;;;13.40;90.20;;;;;;5109363;28;20381;-59
2021/12/16 13:33:53;;;;;;;4.03;2.72;;;13.40;90.60;;;;;;5127408;27;20034;-59
2021/12/16 13:36:47;;;;;;;4.43;2.63;;;13.30;90.60;;;;;;5095769;27;20050;-59
2021/12/16 13:39:22;;;;;;;5.10;2.70;;;13.30;90.90;;;;;;5089507;28;20044;-58
2021/12/16 13:42:05;;;;;;;6.20;3.83;;;13.30;91.30;;;;;;5082460;28;20046;-58
2021/12/16 13:44:51;;;;;;;6.55;4.07;;;13.30;91.20;;;;;;5104833;28;20037;-58
2021/12/16 13:47:59;;;;;;;6.00;3.42;;;13.20;91.40;;;;;;5062662;28;20048;-58
2021/12/16 14:10:15;;;;;;;6.60;3.67;;;12.90;92.30;;;;;;5111944;28;20043;-59
2021/12/16 14:16:39;;;;;;;8.00;3.83;;;12.70;92.50;;;;;;5095186;28;20071;-59
2021/12/16 14:24:45;;;;;;;6.90;3.80;;;12.70;92.50;;;;;;5099261;28;20504;-59
2021/12/16 14:31:05;;;;;;;10.18;4.18;;;12.70;92.10;;;;;;5086592;28;20039;-60
2021/12/16 14:43:40;;;;;;;9.85;4.90;;;12.40;92.60;;;;;;5102916;28;20043;-60
2021/12/16 14:46:10;;;;;;;8.45;4.78;;;12.40;92.70;;;;;;5101957;28;20036;-60
2021/12/16 14:48:38;;;;;;;8.38;5.30;;;12.30;92.70;;;;;;5102809;28;20211;-59
2021/12/16 14:51:09;;;;;;;8.05;4.75;;;12.30;92.80;;;;;;5112229;28;20450;-60
2021/12/16 14:53:51;;;;;;;6.90;4.25;;;12.20;92.80;;;;;;5111855;28;20371;-59
2021/12/16 14:56:36;;;;;;;5.72;3.97;;;12.20;92.80;;;;;;5101158;28;20036;-59
2021/12/16 14:59:13;;;;;;;6.22;3.42;;;12.30;93.00;;;;;;5110612;28;20463;-58
2021/12/16 15:01:48;;;;;;;6.13;4.43;;;12.20;93.00;;;;;;5107172;28;20083;-60
2021/12/16 15:04:22;;;;;;;9.60;4.93;;;12.20;93.10;;;;;;5107031;28;20039;-59
2021/12/16 15:06:59;;;;;;;6.78;4.45;;;12.20;93.20;;;;;;5103411;28;20120;-59
2021/12/16 15:09:30;;;;;;;7.05;4.18;;;12.10;93.30;;;;;;5077757;28;20032;-59
2021/12/16 15:12:15;;;;;;;8.60;5.55;;;12.10;93.40;;;;;;5104349;28;20386;-59
2021/12/16 15:15:02;;;;;;;7.53;4.60;;;12.10;93.50;;;;;;5069486;28;20068;-59
2021/12/16 15:42:46;;;;;;;20.13;14.15;;;11.70;94.20;;;;;;5109079;28;20035;-59
2021/12/16 15:45:25;;;;;;;14.23;11.48;;;11.70;94.20;;;;;;5090061;28;20373;-59
2021/12/16 15:47:57;;;;;;;15.95;11.02;;;11.70;94.30;;;;;;5095032;28;20040;-59
2021/12/16 15:50:32;;;;;;;12.85;9.00;;;11.70;94.50;;;;;;5100496;28;20032;-59
2021/12/16 15:53:04;;;;;;;15.32;10.10;;;11.70;94.60;;;;;;5091621;28;20046;-59
2021/12/16 15:55:34;;;;;;;11.57;7.10;;;11.60;94.60;;;;;;5086351;28;20040;-57
2021/12/16 15:58:06;;;;;;;10.25;7.05;;;11.60;94.60;;;;;;5099601;28;20047;-58
2021/12/16 16:00:38;;;;;;;7.43;5.20;;;11.60;94.60;;;;;;5089043;28;20059;-58
2021/12/16 16:03:08;;;;;;;9.63;6.13;;;11.60;94.80;;;;;;5110157;28;20031;-60
2021/12/16 16:05:43;;;;;;;11.27;7.50;;;11.50;94.80;;;;;;5118062;27;20059;-59
2021/12/16 16:08:13;;;;;;;14.07;6.90;;;11.50;95.00;;;;;;5082282;28;20040;-59
2021/12/16 16:10:44;;;;;;;9.63;6.05;;;11.50;95.10;;;;;;5115266;28;20058;-59
2021/12/16 16:13:24;;;;;;;7.50;5.38;;;11.50;95.10;;;;;;5082256;28;20134;-60
2021/12/16 16:15:56;;;;;;;8.35;4.78;;;11.50;95.20;;;;;;5098716;28;20035;-59
2021/12/16 16:21:13;;;;;;;5.00;3.25;;;11.50;95.20;;;;;;5116782;28;20047;-59
2021/12/16 16:23:45;;;;;;;8.70;4.70;;;11.50;95.30;;;;;;5098493;28;20111;-60
2021/12/16 16:26:15;;;;;;;9.30;4.95;;;11.50;95.40;;;;;;5116877;28;20519;-60
2021/12/16 16:28:45;;;;;;;7.47;4.88;;;11.50;95.50;;;;;;5081496;28;20089;-59
2021/12/16 16:31:18;;;;;;;8.75;5.93;;;11.40;95.50;;;;;;5116578;28;20377;-59
2021/12/16 16:33:47;;;;;;;12.52;6.72;;;11.40;95.50;;;;;;5116566;28;20036;-59
2021/12/16 16:36:20;;;;;;;15.80;7.95;;;11.30;95.50;;;;;;5098238;28;20356;-60
2021/12/16 16:38:55;;;;;;;11.68;7.22;;;11.30;95.60;;;;;;5116502;28;20450;-58
2021/12/16 16:41:28;;;;;;;11.27;6.55;;;11.30;95.60;;;;;;5098125;28;20039;-58
2021/12/16 16:43:58;;;;;;;12.23;7.72;;;11.20;95.60;;;;;;5098155;28;20350;-59
2021/12/16 16:46:39;;;;;;;11.13;6.10;;;11.20;95.80;;;;;;5116081;28;20074;-61
2021/12/16 16:49:24;;;;;;;11.07;7.57;;;11.20;95.90;;;;;;5115348;28;20481;-59
2021/12/16 16:51:53;;;;;;;10.88;7.20;;;11.20;95.90;;;;;;5081565;28;20385;-60
2021/12/16 16:54:27;;;;;;;16.77;7.93;;;11.10;96.00;;;;;;5098003;28;20108;-60
2021/12/16 16:57:05;;;;;;;13.05;9.93;;;11.10;96.00;;;;;;5081402;28;20047;-59
2021/12/16 16:59:57;;;;;;;18.70;12.40;;;11.10;96.10;;;;;;5097285;28;20048;-60
2021/12/16 17:02:33;;;;;;;26.60;15.60;;;11.10;96.20;;;;;;5097707;28;20032;-60
2021/12/16 17:05:10;;;;;;;27.15;18.05;;;11.00;96.20;;;;;;5098053;28;20040;-58
2021/12/16 17:07:49;;;;;;;32.72;18.95;;;11.00;96.20;;;;;;5115604;28;20043;-59
2021/12/16 17:10:23;;;;;;;23.92;16.20;;;11.00;96.30;;;;;;5115591;28;20036;-59
2021/12/16 17:13:07;;;;;;;24.40;16.00;;;11.00;96.30;;;;;;5097609;28;20392;-59
2021/12/16 17:17:11;;;;;;;20.90;14.27;;;11.00;96.40;;;;;;5115667;28;20130;-59
2021/12/16 17:18:36;;;;;;;16.75;11.88;;;11.00;96.40;;;;;;5115445;28;20125;-59
2021/12/16 17:21:20;;;;;;;13.65;9.98;;;10.90;96.40;;;;;;5115573;28;20032;-59
2021/12/16 17:23:53;;;;;;;16.00;10.73;;;10.90;96.40;;;;;;5097597;28;20043;-59
2021/12/16 17:26:29;;;;;;;19.42;12.82;;;10.90;96.60;;;;;;5063899;28;20050;-59
2021/12/16 17:29:02;;;;;;;19.10;13.50;;;10.90;96.70;;;;;;5063950;28;20058;-59
2021/12/16 17:31:34;;;;;;;22.13;12.82;;;10.90;96.70;;;;;;5115275;28;20046;-61